Hsc Superjet — IINO — position and weather

sailwx.info

Track history (hours):
 
Tides and Currents Weather Stations Pressure Air Temp Water Temp Dewpoint Dewpoint Depression Visibility Wind Speed Wind Dir Waves Ship Positions

Hsc Superjet

Last reported at 2015-Aug-03 15:34 UTC. Time now 2015-Aug-04 03:24 UTC.
Position N 40°42' E 014°18'.

Length 44 m; draft 1.4 m.

Type: High speed craft. MMSI: 247540000.

Date/timePositionNaut miles runAvg speedWind from/ knotsBaromVisibWave heightAir tempDewpointWater temp
2015-Aug-03 15:34N 40°42' E 014°18'9 8.5
2015-Aug-03 14:33N 40°34' E 014°15'12 0.6
2015-Aug-02 18:33N 40°46' E 014°17'8 8.3
2015-Aug-02 17:33N 40°37' E 014°16'1 0.7
2015-Aug-02 15:32N 40°39' E 014°16'5 5.4
2015-Aug-02 14:33N 40°33' E 014°15'7 3.7
2015-Aug-02 12:31N 40°41' E 014°15'8 7.3
2015-Aug-02 11:30N 40°33' E 014°14'1 1.0
2015-Aug-02 10:33N 40°34' E 014°15'8 0.4
2015-Aug-01 15:32N 40°42' E 014°16'9 8.8
2015-Aug-01 14:31N 40°33' E 014°14'7 7.1
2015-Aug-01 13:31N 40°40' E 014°17'9 8.7
2015-Aug-01 12:29N 40°49' E 014°17'1617.4
2015-Aug-01 11:33N 40°33' E 014°14'0 0.1
2015-Aug-01 10:33N 40°33' E 014°15'15 0.8
2015-Jul-31 15:14N 40°48' E 014°17'1521.8
2015-Jul-31 14:33N 40°34' E 014°15'1 0.5
2015-Jul-31 13:32N 40°33' E 014°14'2 1.5
2015-Jul-31 12:17N 40°35' E 014°13'1 0.8
2015-Jul-31 11:29N 40°34' E 014°13'1 1.1
2015-Jul-31 10:33N 40°34' E 014°14'3 2.6
2015-Jul-31 09:33N 40°36' E 014°16'1311.6
2015-Jul-31 08:25N 40°49' E 014°17'1618.0
2015-Jul-31 07:33N 40°33' E 014°15'8 0.5
2015-Jul-30 15:30N 40°42' E 014°16'8 8.6
2015-Jul-30 14:33N 40°34' E 014°15'1 0.6
2015-Jul-30 13:31N 40°33' E 014°14'0 0.0
2015-Jul-30 12:32N 40°33' E 014°14'0 0.0
2015-Jul-30 11:26N 40°33' E 014°14'4 4.6
2015-Jul-30 10:32N 40°37' E 014°16'1210.3
2015-Jul-30 09:23N 40°49' E 014°17'1619.2
2015-Jul-30 08:33N 40°33' E 014°14'17 5.6
2015-Jul-30 05:33N 40°50' E 014°16'10 0.7
2015-Jul-29 15:27N 40°40' E 014°16'6 6.5
2015-Jul-29 14:27N 40°33' E 014°14'15 7.2
2015-Jul-29 12:22N 40°48' E 014°17'1515.0
2015-Jul-29 11:22N 40°33' E 014°14'0 0.0
2015-Jul-29 10:32N 40°33' E 014°14'9 0.5
2015-Jul-28 15:32N 40°43' E 014°17'9 8.9
2015-Jul-28 14:29N 40°33' E 014°14'4 4.7
2015-Jul-28 13:32N 40°38' E 014°16'1211.5
2015-Jul-28 12:32N 40°49' E 014°17'16 8.0
2015-Jul-28 10:33N 40°33' E 014°14'10 0.2
2015-Jul-26 15:33N 40°43' E 014°17'10 9.3
2015-Jul-26 14:32N 40°33' E 014°14'1 0.4
2015-Jul-26 11:13N 40°34' E 014°16'2 2.7
2015-Jul-26 10:32N 40°35' E 014°16'6 0.3
2015-Jul-25 15:33N 40°41' E 014°17'8 8.1
2015-Jul-25 14:32N 40°33' E 014°14'16 7.8
2015-Jul-25 12:27N 40°50' E 014°17'1617.9
2015-Jul-25 11:32N 40°33' E 014°14'1 1.2
2015-Jul-25 10:32N 40°34' E 014°16'14 7.0
2015-Jul-25 08:28N 40°49' E 014°17'1516.3
2015-Jul-25 07:33N 40°34' E 014°15'12 0.9
2015-Jul-24 18:32N 40°46' E 014°17'7 7.2
2015-Jul-24 17:32N 40°39' E 014°16'  
Track history (hours):
 
Tides and Currents Weather Stations Pressure Air Temp Water Temp Dewpoint Dewpoint Depression Visibility Wind Speed Wind Dir Waves Ship Positions

Hsc Superjet

Last reported at 2015-Aug-03 15:34 UTC. Time now 2015-Aug-04 03:24 UTC.
Position N 40°42' E 014°18'.

Length 44 m; draft 1.4 m.

Type: High speed craft. MMSI: 247540000.

Date/timePositionNaut miles runAvg speedWind from/ knotsBaromVisibWave heightAir tempDewpointWater temp
2015-Aug-03 15:34N 40°42' E 014°18'9 8.5
2015-Aug-03 14:33N 40°34' E 014°15'12 0.6
2015-Aug-02 18:33N 40°46' E 014°17'8 8.3
2015-Aug-02 17:33N 40°37' E 014°16'1 0.7
2015-Aug-02 15:32N 40°39' E 014°16'5 5.4
2015-Aug-02 14:33N 40°33' E 014°15'7 3.7
2015-Aug-02 12:31N 40°41' E 014°15'8 7.3
2015-Aug-02 11:30N 40°33' E 014°14'1 1.0
2015-Aug-02 10:33N 40°34' E 014°15'8 0.4
2015-Aug-01 15:32N 40°42' E 014°16'9 8.8
2015-Aug-01 14:31N 40°33' E 014°14'7 7.1
2015-Aug-01 13:31N 40°40' E 014°17'9 8.7
2015-Aug-01 12:29N 40°49' E 014°17'1617.4
2015-Aug-01 11:33N 40°33' E 014°14'0 0.1
2015-Aug-01 10:33N 40°33' E 014°15'15 0.8
2015-Jul-31 15:14N 40°48' E 014°17'1521.8
2015-Jul-31 14:33N 40°34' E 014°15'1 0.5
2015-Jul-31 13:32N 40°33' E 014°14'2 1.5
2015-Jul-31 12:17N 40°35' E 014°13'1 0.8
2015-Jul-31 11:29N 40°34' E 014°13'1 1.1
2015-Jul-31 10:33N 40°34' E 014°14'3 2.6
2015-Jul-31 09:33N 40°36' E 014°16'1311.6
2015-Jul-31 08:25N 40°49' E 014°17'1618.0
2015-Jul-31 07:33N 40°33' E 014°15'8 0.5
2015-Jul-30 15:30N 40°42' E 014°16'8 8.6
2015-Jul-30 14:33N 40°34' E 014°15'1 0.6
2015-Jul-30 13:31N 40°33' E 014°14'0 0.0
2015-Jul-30 12:32N 40°33' E 014°14'0 0.0
2015-Jul-30 11:26N 40°33' E 014°14'4 4.6
2015-Jul-30 10:32N 40°37' E 014°16'1210.3
2015-Jul-30 09:23N 40°49' E 014°17'1619.2
2015-Jul-30 08:33N 40°33' E 014°14'17 5.6
2015-Jul-30 05:33N 40°50' E 014°16'10 0.7
2015-Jul-29 15:27N 40°40' E 014°16'6 6.5
2015-Jul-29 14:27N 40°33' E 014°14'15 7.2
2015-Jul-29 12:22N 40°48' E 014°17'1515.0
2015-Jul-29 11:22N 40°33' E 014°14'0 0.0
2015-Jul-29 10:32N 40°33' E 014°14'9 0.5
2015-Jul-28 15:32N 40°43' E 014°17'9 8.9
2015-Jul-28 14:29N 40°33' E 014°14'4 4.7
2015-Jul-28 13:32N 40°38' E 014°16'1211.5
2015-Jul-28 12:32N 40°49' E 014°17'16 8.0
2015-Jul-28 10:33N 40°33' E 014°14'10 0.2
2015-Jul-26 15:33N 40°43' E 014°17'10 9.3
2015-Jul-26 14:32N 40°33' E 014°14'1 0.4
2015-Jul-26 11:13N 40°34' E 014°16'2 2.7
2015-Jul-26 10:32N 40°35' E 014°16'6 0.3
2015-Jul-25 15:33N 40°41' E 014°17'8 8.1
2015-Jul-25 14:32N 40°33' E 014°14'16 7.8
2015-Jul-25 12:27N 40°50' E 014°17'1617.9
2015-Jul-25 11:32N 40°33' E 014°14'1 1.2
2015-Jul-25 10:32N 40°34' E 014°16'14 7.0
2015-Jul-25 08:28N 40°49' E 014°17'1516.3
2015-Jul-25 07:33N 40°34' E 014°15'12 0.9
2015-Jul-24 18:32N 40°46' E 014°17'7 7.2
2015-Jul-24 17:32N 40°39' E 014°16'  

Dump ship's entire track history